Time;durP1;ratioP1;P1;durP2;ratioP2;P2;SDS_P1;SDS_P2;PMS_P1;PMS_P2;Temp;Humidity;BMP_temperature;BMP_pressure;BME280_temperature;BME280_humidity;BME280_pressure;Samples;Min_cycle;Max_cycle;Signal;HPM_P1;HPM_P2
2022/06/07 00:01:34;;;;;;;;;;;12.70;99.90;;;;;;5053787;28;19924;-83
2022/06/07 00:04:01;;;;;;;;;;;12.60;99.90;;;;;;5030348;28;19955;-82
2022/06/07 00:06:28;;;;;;;;;;;12.60;99.90;;;;;;5036844;28;19921;-82
2022/06/07 00:08:55;;;;;;;;;;;12.50;99.90;;;;;;5021484;28;19924;-83
2022/06/07 00:11:22;;;;;;;;;;;12.50;99.90;;;;;;5044840;28;19948;-81
2022/06/07 00:13:50;;;;;;;;;;;12.40;99.90;;;;;;5036179;28;19924;-84
2022/06/07 00:16:17;;;;;;;;;;;12.30;99.90;;;;;;5050049;28;19994;-83
2022/06/07 00:18:45;;;;;;;;;;;12.30;99.90;;;;;;5035714;28;19928;-83
2022/06/07 00:21:13;;;;;;;;;;;12.30;99.90;;;;;;5043325;28;19924;-82
2022/06/07 00:23:39;;;;;;;;;;;12.20;99.90;;;;;;5030856;28;19924;-82
2022/06/07 00:26:06;;;;;;;;;;;12.20;99.90;;;;;;5024869;28;20090;-83
2022/06/07 00:28:33;;;;;;;;;;;12.10;99.90;;;;;;5028139;28;19960;-83
2022/06/07 00:31:01;;;;;;;;;;;12.20;99.90;;;;;;5038523;28;20669;-82
2022/06/07 00:33:28;;;;;;;;;;;12.10;99.90;;;;;;5055289;28;19916;-81
2022/06/07 00:35:55;;;;;;;;;;;12.10;99.90;;;;;;5049280;28;19954;-86
2022/06/07 00:38:21;;;;;;;;;;;12.40;99.90;;;;;;5074417;28;19909;-85
2022/06/07 00:40:48;;;;;;;;;;;12.10;99.90;;;;;;5097236;28;19976;-84
2022/06/07 00:43:15;;;;;;;;;;;12.10;99.90;;;;;;5080430;28;19920;-84
2022/06/07 00:45:42;;;;;;;;;;;12.10;99.90;;;;;;5098495;28;19905;-83
2022/06/07 00:48:11;;;;;;;;;;;12.10;99.90;;;;;;5080952;28;19950;-85
2022/06/07 00:50:41;;;;;;;;;;;12.10;99.90;;;;;;5096164;28;19931;-81
2022/06/07 00:53:17;;;;;;;;;;;12.00;99.90;;;;;;5050995;28;19952;-81
2022/06/07 00:55:44;;;;;;;;;;;12.10;99.90;;;;;;5037942;28;19927;-80
2022/06/07 00:58:13;;;;;;;;;;;12.00;99.90;;;;;;5070977;28;19982;-83
2022/06/07 01:00:44;;;;;;;;;;;12.00;99.90;;;;;;5074418;28;19924;-84
2022/06/07 01:03:14;;;;;;;;;;;12.00;99.90;;;;;;5036893;28;19941;-84
2022/06/07 01:05:45;;;;;;;;;;;12.00;99.90;;;;;;5035205;28;19909;-80
2022/06/07 01:11:07;;;;;;;;;;;12.00;99.90;;;;;;5035636;28;19984;-84
2022/06/07 01:13:36;;;;;;;;;;;12.00;99.90;;;;;;5047034;28;20015;-80
2022/06/07 01:16:11;;;;;;;;;;;12.00;99.90;;;;;;5073221;28;19928;-81
2022/06/07 01:18:42;;;;;;;;;;;11.90;99.90;;;;;;5065410;28;19940;-83
2022/06/07 01:21:18;;;;;;;;;;;11.90;99.90;;;;;;5047820;28;19925;-81
2022/06/07 01:23:46;;;;;;;;;;;11.80;99.90;;;;;;5036699;28;19925;-82
2022/06/07 01:26:15;;;;;;;;;;;11.80;99.90;;;;;;5044208;28;19991;-84
2022/06/07 01:28:42;;;;;;;;;;;11.70;99.90;;;;;;5028391;28;20434;-80
2022/06/07 01:31:10;;;;;;;;;;;11.70;99.90;;;;;;5038526;28;20020;-80
2022/06/07 01:33:37;;;;;;;;;;;11.70;99.90;;;;;;5031585;28;20384;-83
2022/06/07 01:36:05;;;;;;;;;;;11.70;99.90;;;;;;5037176;28;19921;-80
2022/06/07 01:38:34;;;;;;;;;;;11.60;99.90;;;;;;5033748;28;19990;-80
2022/06/07 01:43:45;;;;;;;;;;;11.60;99.90;;;;;;5032655;28;19916;-83
2022/06/07 01:46:12;;;;;;;;;;;11.60;99.90;;;;;;5032963;28;20300;-80
2022/06/07 01:48:40;;;;;;;;;;;11.60;99.90;;;;;;5029802;28;20413;-82
2022/06/07 01:51:07;;;;;;;;;;;11.60;99.90;;;;;;5027826;28;19925;-81
2022/06/07 01:53:38;;;;;;;;;;;11.60;99.90;;;;;;5037906;28;20455;-80
2022/06/07 01:56:05;;;;;;;;;;;11.60;99.90;;;;;;5032958;28;19931;-80
2022/06/07 01:58:34;;;;;;;;;;;11.70;99.90;;;;;;5050587;28;19924;-85
2022/06/07 02:01:01;;;;;;;;;;;11.70;99.90;;;;;;5042243;28;20434;-83
2022/06/07 02:03:28;;;;;;;;;;;11.60;99.90;;;;;;5046537;28;19977;-85
2022/06/07 02:05:58;;;;;;;;;;;11.70;99.90;;;;;;5048906;28;19940;-81
2022/06/07 02:08:27;;;;;;;;;;;11.70;99.90;;;;;;5046194;28;19928;-83
2022/06/07 02:10:56;;;;;;;;;;;11.70;99.90;;;;;;5036135;28;19968;-80
2022/06/07 02:13:23;;;;;;;;;;;11.70;99.90;;;;;;5013429;28;19924;-82
2022/06/07 02:15:50;;;;;;;;;;;11.60;99.90;;;;;;5019611;28;19924;-80
2022/06/07 02:18:17;;;;;;;;;;;11.60;99.90;;;;;;5031974;28;20376;-81
2022/06/07 02:20:54;;;;;;;;;;;11.70;99.90;;;;;;5023117;28;19972;-81
2022/06/07 02:23:21;;;;;;;;;;;11.50;99.90;;;;;;5012481;28;19939;-82
2022/06/07 02:25:49;;;;;;;;;;;12.20;99.90;;;;;;5039070;28;19970;-80
2022/06/07 02:28:18;;;;;;;;;;;11.40;99.90;;;;;;5061732;28;19928;-81
2022/06/07 02:30:45;;;;;;;;;;;11.40;99.90;;;;;;5026645;28;19920;-81
2022/06/07 02:33:12;;;;;;;;;;;11.40;99.90;;;;;;5032631;28;19956;-84
2022/06/07 02:35:40;;;;;;;;;;;11.40;99.90;;;;;;5023197;28;20150;-84
2022/06/07 02:38:08;;;;;;;;;;;11.30;99.90;;;;;;5030256;28;19956;-81
2022/06/07 02:40:35;;;;;;;;;;;11.30;99.90;;;;;;5049273;28;19991;-81
2022/06/07 02:43:02;;;;;;;;;;;11.30;99.90;;;;;;5050890;28;20387;-83
2022/06/07 02:45:31;;;;;;;;;;;11.40;99.90;;;;;;5031348;28;19921;-80
2022/06/07 02:47:58;;;;;;;;;;;11.30;99.90;;;;;;5025825;28;19925;-82
2022/06/07 02:50:25;;;;;;;;;;;11.30;99.90;;;;;;5032882;28;19958;-80
2022/06/07 02:52:53;;;;;;;;;;;11.30;99.90;;;;;;5045220;28;19971;-81
2022/06/07 02:55:26;;;;;;;;;;;11.20;99.90;;;;;;5051369;28;19978;-81
2022/06/07 02:57:58;;;;;;;;;;;11.10;99.90;;;;;;5039002;28;19928;-81
2022/06/07 03:00:27;;;;;;;;;;;11.10;99.90;;;;;;5027734;28;19960;-82
2022/06/07 03:02:55;;;;;;;;;;;11.10;99.90;;;;;;5026547;28;19924;-82
2022/06/07 03:05:23;;;;;;;;;;;11.10;99.90;;;;;;5031205;28;19925;-83
2022/06/07 03:07:55;;;;;;;;;;;11.00;99.90;;;;;;5032068;28;19924;-81
2022/06/07 03:10:22;;;;;;;;;;;11.00;99.90;;;;;;5043997;28;19924;-80
2022/06/07 03:12:50;;;;;;;;;;;11.00;99.90;;;;;;5030483;28;19963;-83
2022/06/07 03:15:21;;;;;;;;;;;11.00;99.90;;;;;;5031296;28;20612;-81
2022/06/07 03:17:48;;;;;;;;;;;11.10;99.90;;;;;;5045582;28;19927;-80
2022/06/07 03:20:21;;;;;;;;;;;11.10;99.90;;;;;;5034763;28;19947;-84
2022/06/07 03:22:49;;;;;;;;;;;11.10;99.90;;;;;;5032868;28;19921;-85
2022/06/07 03:25:16;;;;;;;;;;;11.10;99.90;;;;;;5032598;28;19964;-83
2022/06/07 03:27:44;;;;;;;;;;;11.10;99.90;;;;;;5044009;28;20065;-83
2022/06/07 03:30:15;;;;;;;;;;;11.20;99.90;;;;;;5022654;28;19976;-85
2022/06/07 03:32:45;;;;;;;;;;;11.20;99.90;;;;;;5048736;28;20001;-82
2022/06/07 03:35:12;;;;;;;;;;;11.30;99.90;;;;;;5056995;28;19920;-84
2022/06/07 03:37:40;;;;;;;;;;;11.30;99.90;;;;;;5050519;28;19924;-85
2022/06/07 03:40:08;;;;;;;;;;;11.30;99.90;;;;;;5051081;28;19920;-82
2022/06/07 03:42:35;;;;;;;;;;;11.40;99.90;;;;;;5048999;28;20488;-83
2022/06/07 03:45:04;;;;;;;;;;;11.40;99.90;;;;;;5037401;28;19933;-83
2022/06/07 03:47:35;;;;;;;;;;;11.50;99.90;;;;;;5046737;28;19942;-84
2022/06/07 03:50:04;;;;;;;;;;;11.50;99.90;;;;;;5039584;28;20311;-84
2022/06/07 03:52:31;;;;;;;;;;;11.40;99.90;;;;;;5043460;28;19931;-83
2022/06/07 03:55:00;;;;;;;;;;;11.60;99.90;;;;;;5038147;28;19921;-84
2022/06/07 03:57:31;;;;;;;;;;;11.70;99.90;;;;;;5042710;28;20438;-85
2022/06/07 04:00:02;;;;;;;;;;;11.70;99.90;;;;;;5056981;28;19917;-84
2022/06/07 04:02:31;;;;;;;;;;;12.00;99.90;;;;;;5076575;28;19936;-85
2022/06/07 04:04:57;;;;;;;;;;;12.20;99.90;;;;;;5054754;28;19940;-84
2022/06/07 04:10:13;;;;;;;;;;;12.60;99.90;;;;;;5063161;28;19909;-85
2022/06/07 04:12:49;;;;;;;;;;;14.50;99.90;;;;;;5056194;28;20326;-83
2022/06/07 04:15:19;;;;;;;;;;;13.90;99.90;;;;;;5045425;28;19931;-85
2022/06/07 04:17:50;;;;;;;;;;;13.80;99.90;;;;;;5051879;28;19920;-84
2022/06/07 04:20:28;;;;;;;;;;;13.30;99.90;;;;;;5049324;28;19956;-83
2022/06/07 04:22:58;;;;;;;;;;;13.60;99.90;;;;;;5038680;28;19950;-85
2022/06/07 04:25:28;;;;;;;;;;;13.80;99.90;;;;;;5040729;28;19963;-83
2022/06/07 04:27:55;;;;;;;;;;;13.90;99.90;;;;;;5043041;28;19955;-83
2022/06/07 04:30:24;;;;;;;;;;;13.90;99.90;;;;;;5042969;28;20505;-85
2022/06/07 04:32:54;;;;;;;;;;;14.10;99.90;;;;;;5052239;28;19929;-84
2022/06/07 04:35:25;;;;;;;;;;;14.30;99.90;;;;;;5053392;28;20026;-84
2022/06/07 04:37:56;;;;;;;;;;;14.70;99.90;;;;;;5054050;28;20310;-85
2022/06/07 04:40:27;;;;;;;;;;;14.60;99.90;;;;;;5053669;28;19975;-83
2022/06/07 04:42:54;;;;;;;;;;;14.80;99.90;;;;;;5066967;28;19925;-84
2022/06/07 04:45:28;;;;;;;;;;;15.20;99.90;;;;;;5058351;28;19931;-85
2022/06/07 04:48:16;;;;;;;;;;;15.30;99.90;;;;;;5060030;28;19959;-84
2022/06/07 04:51:00;;;;;;;;;;;15.30;99.90;;;;;;5028284;28;19929;-85
2022/06/07 04:53:28;;;;;;;;;;;15.50;99.90;;;;;;5024082;28;19921;-85
2022/06/07 04:55:56;;;;;;;;;;;15.60;99.90;;;;;;5032345;28;19935;-84
2022/06/07 04:58:23;;;;;;;;;;;15.60;99.90;;;;;;5051023;28;19932;-84
2022/06/07 05:00:52;;;;;;;;;;;15.50;99.90;;;;;;5050686;28;19960;-84
2022/06/07 05:03:21;;;;;;;;;;;15.70;99.90;;;;;;5044846;28;19920;-84
2022/06/07 05:05:48;;;;;;;;;;;15.80;99.90;;;;;;5030926;28;19920;-85
2022/06/07 05:08:17;;;;;;;;;;;15.70;99.90;;;;;;5056017;28;19920;-85
2022/06/07 05:10:46;;;;;;;;;;;15.70;99.90;;;;;;5048352;28;19970;-84
2022/06/07 05:13:14;;;;;;;;;;;15.80;99.90;;;;;;5036784;28;19921;-86
2022/06/07 05:15:42;;;;;;;;;;;15.80;99.90;;;;;;5043291;28;19927;-86
2022/06/07 05:18:14;;;;;;;;;;;15.80;99.90;;;;;;5028622;28;19925;-86
2022/06/07 05:20:45;;;;;;;;;;;15.70;99.90;;;;;;5027501;28;19944;-86
2022/06/07 05:23:18;;;;;;;;;;;15.80;99.90;;;;;;5040686;28;19931;-85
2022/06/07 05:25:55;;;;;;;;;;;15.90;99.90;;;;;;5045917;28;19931;-85
2022/06/07 05:28:26;;;;;;;;;;;15.90;99.90;;;;;;5048352;28;19924;-86
2022/06/07 05:30:53;;;;;;;;;;;15.90;99.90;;;;;;5032673;28;20031;-85
2022/06/07 05:33:38;;;;;;;;;;;16.00;99.90;;;;;;5025622;28;19921;-84
2022/06/07 05:36:15;;;;;;;;;;;16.20;99.90;;;;;;4888632;28;19925;-84
2022/06/07 05:38:46;;;;;;;;;;;16.40;99.90;;;;;;4819652;28;20019;-84
2022/06/07 05:41:20;;;;;;;;;;;16.60;99.90;;;;;;4809332;28;20329;-83
2022/06/07 05:44:02;;;;;;;;;;;15.80;99.90;;;;;;4778264;28;19951;-84
2022/06/07 05:46:39;;;;;;;;;;;16.80;99.90;;;;;;4798344;28;19924;-83
2022/06/07 05:49:20;;;;;;;;;;;16.80;99.90;;;;;;4840252;28;20394;-86
2022/06/07 05:52:03;;;;;;;;;;;17.10;99.90;;;;;;4835798;28;19921;-83
2022/06/07 05:54:32;;;;;;;;;;;17.20;99.90;;;;;;4816191;28;19933;-83
2022/06/07 05:57:01;;;;;;;;;;;17.40;99.90;;;;;;4822723;28;19925;-83
2022/06/07 05:59:32;;;;;;;;;;;17.90;99.90;;;;;;4813144;28;20499;-83
2022/06/07 06:02:10;;;;;;;;;;;18.20;99.90;;;;;;4830825;28;20464;-83
2022/06/07 06:04:46;;;;;;;;;;;18.50;99.90;;;;;;4802549;28;19921;-83
2022/06/07 06:07:14;;;;;;;;;;;18.60;99.90;;;;;;4821026;28;20804;-83
2022/06/07 06:12:39;;;;;;;;;;;21.60;99.90;;;;;;5034132;28;19925;-75
2022/06/07 06:15:13;;;;;;;;;;;23.50;99.90;;;;;;5010113;28;19921;-75
2022/06/07 06:17:40;;;;;;;;;;;25.20;99.90;;;;;;5009802;28;20345;-75
2022/06/07 06:20:25;;;;;;;;;;;27.00;99.90;;;;;;5010080;28;19932;-75
2022/06/07 06:22:54;;;;;;;;;;;28.60;99.90;;;;;;5007198;28;19925;-76
2022/06/07 06:25:21;;;;;;;;;;;29.50;99.90;;;;;;4997425;28;19936;-75
2022/06/07 06:27:49;;;;;;;;;;;30.40;99.90;;;;;;4999959;28;19932;-77
2022/06/07 06:30:17;;;;;;;;;;;30.50;99.90;;;;;;5005429;28;20306;-76
2022/06/07 06:32:54;;;;;;;;;;;30.60;99.90;;;;;;4998373;28;20045;-76
2022/06/07 06:35:24;;;;;;;;;;;31.20;99.90;;;;;;5000776;28;20241;-75
2022/06/07 06:37:52;;;;;;;;;;;31.80;99.90;;;;;;4999275;28;19929;-76
2022/06/07 06:40:21;;;;;;;;;;;32.40;99.50;;;;;;5004178;28;19936;-78
2022/06/07 06:43:01;;;;;;;11.82;4.53;;;33.30;97.00;;;;;;5003161;28;20016;-75
2022/06/07 06:46:05;;;;;;;8.50;4.00;;;34.20;95.90;;;;;;4989450;28;20218;-75
2022/06/07 06:48:33;;;;;;;8.68;4.13;;;35.00;93.60;;;;;;5003925;28;20202;-76
2022/06/07 06:51:01;;;;;;;16.00;5.50;;;35.40;90.30;;;;;;5006688;28;20253;-76
2022/06/07 06:53:28;;;;;;;9.18;4.35;;;35.60;87.00;;;;;;5006766;28;20313;-76
2022/06/07 06:56:00;;;;;;;11.85;4.60;;;35.80;83.70;;;;;;5004693;28;20244;-76
2022/06/07 06:58:29;;;;;;;12.00;4.88;;;35.80;79.60;;;;;;5001669;28;20687;-73
2022/06/07 07:01:05;;;;;;;12.82;5.13;;;35.90;78.50;;;;;;5003726;28;20234;-74
2022/06/07 07:03:34;;;;;;;17.45;5.93;;;35.90;76.90;;;;;;5005980;28;20206;-74
2022/06/07 07:06:02;;;;;;;13.90;4.70;;;35.80;74.80;;;;;;5024474;28;20391;-74
2022/06/07 07:08:34;;;;;;;12.13;4.90;;;35.90;74.60;;;;;;5006604;28;20217;-74
2022/06/07 07:11:12;;;;;;;23.35;5.90;;;36.10;74.60;;;;;;4998731;28;20250;-73
2022/06/07 07:13:40;;;;;;;13.57;5.38;;;36.60;73.90;;;;;;4997134;28;20277;-73
2022/06/07 07:16:10;;;;;;;115.20;100.05;;;36.90;71.50;;;;;;5001020;28;20559;-74
2022/06/07 07:18:37;;;;;;;10.50;4.65;;;37.20;71.00;;;;;;5005614;28;20293;-73
2022/06/07 07:21:05;;;;;;;14.40;5.40;;;37.30;68.50;;;;;;5007261;28;20719;-74
2022/06/07 07:23:35;;;;;;;11.73;4.32;;;37.40;67.90;;;;;;5014732;28;20293;-73
2022/06/07 07:26:06;;;;;;;10.38;5.20;;;37.50;66.90;;;;;;5017726;28;20230;-72
2022/06/07 07:28:33;;;;;;;10.60;5.05;;;37.50;66.10;;;;;;5005568;28;20216;-74
2022/06/07 07:31:01;;;;;;;15.00;5.43;;;37.50;65.70;;;;;;5003113;28;20348;-74
2022/06/07 07:33:31;;;;;;;11.57;4.95;;;37.60;64.20;;;;;;5004452;28;20265;-74
2022/06/07 07:36:01;;;;;;;9.55;4.05;;;37.70;63.90;;;;;;5011510;28;20561;-74
2022/06/07 07:38:29;;;;;;;14.52;5.45;;;37.90;64.00;;;;;;4992128;28;20675;-74
2022/06/07 07:40:56;;;;;;;103.10;29.73;;;37.90;62.50;;;;;;4991755;28;20312;-72
2022/06/07 07:43:23;;;;;;;11.25;5.00;;;38.00;62.00;;;;;;4998617;28;20714;-73
2022/06/07 07:45:52;;;;;;;17.63;6.28;;;38.00;61.20;;;;;;4999566;28;20297;-73
2022/06/07 07:48:19;;;;;;;20.52;6.57;;;37.90;61.00;;;;;;5005370;28;20221;-75
2022/06/07 07:50:49;;;;;;;72.25;19.42;;;37.90;60.70;;;;;;5003490;28;20233;-75
2022/06/07 07:53:19;;;;;;;14.13;5.37;;;38.00;60.70;;;;;;5018590;28;20248;-76
2022/06/07 07:55:47;;;;;;;17.87;5.47;;;38.00;59.90;;;;;;5001101;28;20920;-75
2022/06/07 07:58:17;;;;;;;11.82;4.68;;;38.00;59.20;;;;;;5006451;28;20237;-76
2022/06/07 08:00:45;;;;;;;13.35;5.60;;;37.90;58.90;;;;;;5004274;28;20223;-75
2022/06/07 08:03:13;;;;;;;12.07;5.28;;;37.70;59.10;;;;;;5002713;28;20271;-75
2022/06/07 08:05:45;;;;;;;54.83;9.43;;;;;;;;;;5021836;22;20696;-80
2022/06/07 08:08:14;;;;;;;32.20;8.23;;;37.70;57.20;;;;;;5041229;28;20309;-77
2022/06/07 08:10:44;;;;;;;18.30;5.60;;;37.30;58.40;;;;;;5045846;28;20931;-79
2022/06/07 08:13:12;;;;;;;20.52;5.90;;;37.10;57.70;;;;;;5050313;28;20244;-78
2022/06/07 08:15:39;;;;;;;62.63;15.70;;;36.40;57.30;;;;;;5032135;28;20688;-78
2022/06/07 08:18:07;;;;;;;41.42;9.82;;;36.40;57.40;;;;;;5046353;28;20218;-78
2022/06/07 08:20:37;;;;;;;24.73;6.60;;;35.60;58.30;;;;;;5037874;28;20209;-77
2022/06/07 08:23:05;;;;;;;71.35;17.55;;;35.00;58.60;;;;;;5039627;28;20205;-78
2022/06/07 08:25:34;;;;;;;70.47;18.13;;;33.80;59.10;;;;;;5051901;28;20213;-77
2022/06/07 08:28:02;;;;;;;18.67;6.05;;;32.70;60.10;;;;;;5036493;28;20209;-78
2022/06/07 08:30:32;;;;;;;79.82;19.15;;;32.70;62.20;;;;;;5035820;28;20201;-78
2022/06/07 08:37:32;;;;;;;69.20;17.02;;;32.60;61.50;;;;;;5057561;28;20239;-77
2022/06/07 08:38:32;;;;;;;30.00;6.95;;;33.30;62.20;;;;;;5039414;28;20247;-78
2022/06/07 08:41:04;;;;;;;14.50;4.97;;;33.80;62.20;;;;;;5061763;28;20223;-77
2022/06/07 08:43:31;;;;;;;12.68;4.88;;;33.70;60.80;;;;;;5038217;28;20295;-78
2022/06/07 08:45:59;;;;;;;15.23;4.75;;;32.70;61.70;;;;;;5036134;28;20241;-79
2022/06/07 08:48:32;;;;;;;14.85;5.10;;;32.70;61.60;;;;;;5038402;28;20217;-78
2022/06/07 08:51:13;;;;;;;9.25;3.72;;;31.50;61.70;;;;;;5058885;28;20204;-75
2022/06/07 08:53:42;;;;;;;11.68;4.32;;;31.50;62.20;;;;;;5048701;28;20572;-75
2022/06/07 08:56:16;;;;;;;9.48;3.95;;;31.10;63.30;;;;;;5053908;28;20235;-76
2022/06/07 08:58:49;;;;;;;10.18;4.25;;;30.90;62.70;;;;;;5056137;28;20697;-76
2022/06/07 09:01:25;;;;;;;12.00;4.20;;;30.90;63.60;;;;;;5056928;28;20212;-75
2022/06/07 09:04:06;;;;;;;14.13;4.97;;;31.00;63.30;;;;;;5035515;28;20666;-76
2022/06/07 09:06:36;;;;;;;9.45;3.60;;;30.10;62.80;;;;;;5058346;28;20232;-76
2022/06/07 09:09:05;;;;;;;10.55;4.03;;;29.80;64.50;;;;;;5072207;28;20200;-78
2022/06/07 09:14:30;;;;;;;9.83;3.87;;;28.20;64.90;;;;;;5062166;28;20212;-77
2022/06/07 09:16:59;;;;;;;14.07;4.70;;;27.00;66.40;;;;;;5575222;22;20597;-82
2022/06/07 09:19:28;;;;;;;8.10;3.27;;;27.00;67.20;;;;;;5041964;28;21018;-81
2022/06/07 09:21:59;;;;;;;8.20;3.40;;;26.70;67.90;;;;;;5051456;28;20234;-82
2022/06/07 09:24:32;;;;;;;7.00;3.30;;;26.70;68.70;;;;;;5032393;28;20629;-82
2022/06/07 09:27:15;;;;;;;7.70;2.77;;;26.60;68.50;;;;;;5023176;28;20348;-82
2022/06/07 09:29:49;;;;;;;5.60;2.80;;;26.60;68.90;;;;;;5030821;28;20267;-81
2022/06/07 09:32:19;;;;;;;11.53;3.10;;;26.60;68.90;;;;;;5031505;28;20213;-83
2022/06/07 09:34:54;;;;;;;8.03;2.83;;;26.40;69.20;;;;;;5027185;28;20261;-82
2022/06/07 09:37:28;;;;;;;6.50;2.90;;;26.20;69.00;;;;;;5032891;28;20339;-82
2022/06/07 09:40:00;;;;;;;;;;;26.10;69.20;;;;;;5015657;28;19990;-80
2022/06/07 09:42:30;;;;;;;;;;;26.00;69.20;;;;;;5032930;28;19933;-80
2022/06/07 09:44:58;;;;;;;;;;;25.90;68.70;;;;;;5032027;28;19955;-81
2022/06/07 09:47:27;;;;;;;5.50;2.40;;;26.00;67.80;;;;;;5025458;28;20028;-81
2022/06/07 09:49:58;;;;;;;4.68;2.60;;;26.20;69.10;;;;;;5024114;28;20206;-80
2022/06/07 09:52:31;;;;;;;6.00;2.60;;;26.40;68.80;;;;;;5040032;28;20213;-81
2022/06/07 09:55:02;;;;;;;5.87;2.60;;;26.50;69.10;;;;;;5022953;28;20271;-81
2022/06/07 09:57:39;;;;;;;5.97;2.67;;;26.50;69.60;;;;;;5040441;28;20550;-81
2022/06/07 10:00:17;;;;;;;;;;;26.30;70.30;;;;;;5035791;28;20204;-79
2022/06/07 10:03:22;;;;;;;5.85;2.90;;;26.30;71.30;;;;;;5035601;28;19921;-78
2022/06/07 10:06:08;;;;;;;8.07;2.57;;;26.60;71.50;;;;;;5017119;28;20197;-79
2022/06/07 10:08:52;;;;;;;8.93;3.25;;;26.80;72.40;;;;;;5018687;28;20205;-79
2022/06/07 10:11:26;;;;;;;4.63;2.20;;;27.10;71.70;;;;;;5037051;28;20213;-79
2022/06/07 10:14:07;;;;;;;5.53;2.63;;;27.20;71.70;;;;;;5018283;28;20221;-79
2022/06/07 10:16:44;;;;;;;7.00;3.10;;;27.30;71.10;;;;;;5035275;28;20588;-79
2022/06/07 10:19:35;;;;;;;6.70;2.60;;;27.20;71.70;;;;;;5035546;28;20197;-79
2022/06/07 10:22:14;;;;;;;;;;;26.60;71.70;;;;;;5035862;28;19925;-79
2022/06/07 10:24:46;;;;;;;;;;;26.20;72.80;;;;;;5035197;28;19925;-80
2022/06/07 10:27:16;;;;;;;;;;;25.70;73.70;;;;;;5035373;28;19925;-78
2022/06/07 10:29:55;;;;;;;;;;;25.70;74.50;;;;;;5033885;28;19925;-79
2022/06/07 10:32:27;;;;;;;;;;;25.60;75.10;;;;;;5019618;28;19925;-79
2022/06/07 10:34:58;;;;;;;;;;;25.50;76.20;;;;;;5036456;28;19968;-79
2022/06/07 10:37:32;;;;;;;;;;;25.60;75.40;;;;;;5037629;28;20309;-80
2022/06/07 10:40:08;;;;;;;;;;;25.70;76.30;;;;;;5037495;28;19952;-80
2022/06/07 10:42:37;;;;;;;;;;;25.60;75.40;;;;;;5038606;28;20045;-80
2022/06/07 10:45:12;;;;;;;;;;;25.70;75.90;;;;;;5039414;28;19989;-80
2022/06/07 10:47:44;;;;;;;;;;;25.90;74.60;;;;;;5036475;28;19926;-80
2022/06/07 10:50:15;;;;;;;;;;;25.90;75.90;;;;;;5033877;28;19937;-78
2022/06/07 10:52:45;;;;;;;;;;;25.80;75.40;;;;;;5041598;28;19932;-79
2022/06/07 10:55:18;;;;;;;;;;;25.70;76.10;;;;;;5028282;28;19991;-78
2022/06/07 10:57:52;;;;;;;;;;;25.70;75.50;;;;;;5006483;28;19925;-79
2022/06/07 11:00:30;;;;;;;;;;;25.70;77.10;;;;;;5016261;28;20316;-79
2022/06/07 11:03:03;;;;;;;;;;;25.80;76.80;;;;;;5031015;28;19979;-79
2022/06/07 11:11:09;;;;;;;;;;;25.50;77.80;;;;;;5030335;28;19925;-82
2022/06/07 11:13:43;;;;;;;;;;;25.20;77.90;;;;;;5037480;28;19932;-82
2022/06/07 11:16:16;;;;;;;;;;;25.10;78.60;;;;;;5034356;28;19956;-78
2022/06/07 11:18:43;;;;;;;;;;;25.00;79.20;;;;;;5016122;28;20463;-77
2022/06/07 11:21:12;;;;;;;;;;;24.90;79.40;;;;;;5013015;28;19928;-75
2022/06/07 11:23:45;;;;;;;;;;;24.90;80.40;;;;;;5031274;28;19926;-76
2022/06/07 11:26:14;;;;;;;;;;;25.00;80.70;;;;;;5031738;28;19991;-76
2022/06/07 11:28:44;;;;;;;;;;;25.20;80.50;;;;;;5015415;28;19929;-76
2022/06/07 11:31:26;;;;;;;;;;;25.30;80.00;;;;;;5015089;28;19925;-77
2022/06/07 11:34:08;;;;;;;;;;;25.50;79.80;;;;;;5013889;28;20476;-77
2022/06/07 11:36:38;;;;;;;;;;;25.60;79.30;;;;;;5013479;28;20393;-79
2022/06/07 11:39:18;;;;;;;;;;;25.80;79.60;;;;;;5020156;28;19984;-79
2022/06/07 11:41:47;;;;;;;;;;;26.00;79.50;;;;;;5027807;28;19925;-78
2022/06/07 11:44:35;;;;;;;;;;;26.20;79.00;;;;;;5039672;28;19933;-79
2022/06/07 11:47:20;;;;;;;;;;;26.10;78.20;;;;;;5035935;28;20016;-79
2022/06/07 11:49:58;;;;;;;;;;;26.20;79.10;;;;;;5040763;28;19975;-79
2022/06/07 11:52:28;;;;;;;;;;;26.10;78.50;;;;;;5036277;28;19929;-79
2022/06/07 11:54:57;;;;;;;;;;;25.90;78.80;;;;;;5050845;28;19988;-79
2022/06/07 11:57:36;;;;;;;;;;;25.60;78.60;;;;;;5036601;28;19933;-82
2022/06/07 12:00:23;;;;;;;;;;;25.50;80.10;;;;;;5016392;28;20031;-79
2022/06/07 12:03:06;;;;;;;;;;;25.60;80.90;;;;;;5027708;28;20419;-79
2022/06/07 12:05:38;;;;;;;;;;;25.60;80.70;;;;;;5027323;28;19985;-79
2022/06/07 12:08:14;;;;;;;;;;;25.40;80.40;;;;;;5012968;28;20377;-78
2022/06/07 12:10:43;;;;;;;;;;;25.30;81.10;;;;;;5012522;28;19975;-79
2022/06/07 12:13:12;;;;;;;;;;;25.10;82.10;;;;;;5019506;28;20234;-79
2022/06/07 12:15:42;;;;;;;;;;;24.70;82.80;;;;;;5038972;28;19940;-78
2022/06/07 12:18:17;;;;;;;;;;;24.70;83.50;;;;;;5015855;28;20387;-78
2022/06/07 12:20:44;;;;;;;;;;;24.40;84.50;;;;;;5016208;28;20600;-78
2022/06/07 12:23:20;;;;;;;;;;;24.20;86.10;;;;;;5032641;28;19935;-78
2022/06/07 12:25:54;;;;;;;;;;;23.70;86.90;;;;;;5016785;28;19936;-79
2022/06/07 12:28:25;;;;;;;;;;;23.70;88.60;;;;;;5032849;28;20309;-79
2022/06/07 12:30:52;;;;;;;;;;;23.40;90.20;;;;;;5016258;28;19926;-78
2022/06/07 12:33:24;;;;;;;;;;;23.10;90.60;;;;;;5016999;28;19934;-79
2022/06/07 12:35:53;;;;;;;;;;;22.90;90.50;;;;;;5016650;28;19932;-79
2022/06/07 12:38:21;;;;;;;;;;;23.00;91.30;;;;;;5032776;28;19975;-79
2022/06/07 12:40:51;;;;;;;;;;;23.00;91.10;;;;;;5017124;28;20597;-79
2022/06/07 12:43:22;;;;;;;5.97;2.43;;;22.90;90.80;;;;;;5016439;28;20488;-79
2022/06/07 12:46:03;;;;;;;5.80;2.40;;;22.60;90.20;;;;;;5016650;28;20268;-78
2022/06/07 12:48:36;;;;;;;5.63;2.50;;;22.50;90.60;;;;;;5016721;28;20797;-79
2022/06/07 12:51:34;;;;;;;7.07;2.80;;;22.30;90.80;;;;;;5017155;28;20220;-78
2022/06/07 12:54:09;;;;;;;7.63;3.30;;;22.20;91.00;;;;;;5018689;28;20305;-78
2022/06/07 12:56:41;;;;;;;6.83;3.07;;;21.90;91.60;;;;;;5016811;28;20315;-78
2022/06/07 12:59:16;;;;;;;9.30;3.40;;;21.80;92.10;;;;;;5033375;28;20241;-79
2022/06/07 13:01:44;;;;;;;12.17;4.03;;;;;;;;;;5016411;28;20722;-78
2022/06/07 13:04:18;;;;;;;10.97;4.07;;;21.50;92.50;;;;;;5015985;28;20264;-79
2022/06/07 13:07:13;;;;;;;7.53;3.17;;;21.30;93.20;;;;;;5017937;28;20306;-80
2022/06/07 13:09:43;;;;;;;12.10;3.20;;;21.30;93.50;;;;;;5016068;28;20582;-79
2022/06/07 13:12:16;;;;;;;8.77;3.03;;;21.40;94.20;;;;;;5014343;28;20670;-81
2022/06/07 13:14:44;;;;;;;8.33;3.10;;;22.00;95.10;;;;;;5029975;28;20218;-78
2022/06/07 13:17:16;;;;;;;5.73;2.67;;;21.50;95.10;;;;;;5012185;28;20256;-78
2022/06/07 13:19:45;;;;;;;7.77;3.07;;;21.70;95.20;;;;;;5017372;28;20210;-78
2022/06/07 13:22:15;;;;;;;8.60;3.53;;;22.10;95.40;;;;;;4994550;28;20663;-76
2022/06/07 13:24:47;;;;;;;6.83;2.80;;;22.10;95.80;;;;;;5002207;28;20194;-79
2022/06/07 13:27:40;;;;;;;7.77;3.03;;;22.30;95.10;;;;;;5018262;28;20234;-79
2022/06/07 13:30:18;;;;;;;5.63;2.90;;;22.30;95.70;;;;;;5032792;28;20454;-77
2022/06/07 13:32:46;;;;;;;7.67;3.03;;;22.40;95.90;;;;;;5018284;28;20210;-78
2022/06/07 13:35:23;;;;;;;8.43;2.70;;;22.60;96.00;;;;;;5027897;28;20241;-78
2022/06/07 13:38:03;;;;;;;7.37;2.80;;;22.70;95.50;;;;;;5017625;28;20233;-77
2022/06/07 13:40:35;;;;;;;6.50;2.60;;;22.70;95.60;;;;;;5008114;28;20207;-76
2022/06/07 13:43:17;;;;;;;4.80;2.33;;;22.60;95.00;;;;;;5009983;28;20210;-77
2022/06/07 13:45:46;;;;;;;7.43;2.63;;;22.40;94.80;;;;;;5026648;28;20630;-78
2022/06/07 13:48:19;;;;;;;7.30;2.50;;;22.40;95.20;;;;;;5023484;28;20593;-77
2022/06/07 13:53:48;;;;;;;6.03;3.07;;;22.20;96.10;;;;;;5017153;28;20206;-77
2022/06/07 13:56:18;;;;;;;7.53;3.23;;;22.10;96.40;;;;;;5013441;28;20316;-76
2022/06/07 13:58:52;;;;;;;5.37;3.00;;;22.10;96.80;;;;;;5013475;28;20182;-79
2022/06/07 14:01:22;;;;;;;8.67;3.90;;;22.00;97.10;;;;;;5024935;28;20205;-78
2022/06/07 14:03:53;;;;;;;9.80;4.33;;;21.90;97.40;;;;;;5012249;28;20202;-77
2022/06/07 14:06:24;;;;;;;7.67;4.20;;;22.00;98.80;;;;;;5020212;28;20249;-79
2022/06/07 14:08:52;;;;;;;6.57;3.90;;;21.90;99.00;;;;;;5030252;28;20210;-78
2022/06/07 14:11:21;;;;;;;8.20;3.90;;;21.80;99.70;;;;;;5024844;28;20264;-77
2022/06/07 14:13:49;;;;;;;7.10;3.33;;;21.70;99.90;;;;;;5027533;28;20949;-77
2022/06/07 14:16:21;;;;;;;7.93;4.00;;;21.60;99.90;;;;;;5012441;28;20233;-77
2022/06/07 14:18:48;;;;;;;5.80;3.20;;;21.50;99.90;;;;;;5002478;28;20233;-77
2022/06/07 14:21:16;;;;;;;5.23;2.77;;;21.40;99.90;;;;;;5001378;28;20215;-79
2022/06/07 14:23:44;;;;;;;7.33;3.20;;;21.30;99.90;;;;;;5002804;28;20260;-79
2022/06/07 14:26:13;;;;;;;7.47;3.17;;;21.20;99.90;;;;;;5002090;28;20245;-80
2022/06/07 14:28:41;;;;;;;7.27;3.20;;;21.10;99.90;;;;;;5018892;28;20208;-78